sensor_id;sensor_type;location;lat;lon;timestamp;temperature;humidity
28336;DHT22;15592;53.656;7.276;2023-07-13T00:02:21;16.10;99.90
28336;DHT22;15592;53.656;7.276;2023-07-13T00:04:47;16.10;99.90
28336;DHT22;15592;53.656;7.276;2023-07-13T00:07:13;16.20;99.90
28336;DHT22;15592;53.656;7.276;2023-07-13T00:09:40;16.20;99.90
28336;DHT22;15592;53.656;7.276;2023-07-13T00:12:28;16.20;99.90
28336;DHT22;15592;53.656;7.276;2023-07-13T00:14:58;16.30;99.90
28336;DHT22;15592;53.656;7.276;2023-07-13T00:17:25;16.30;99.90
28336;DHT22;15592;53.656;7.276;2023-07-13T00:19:51;16.30;99.90
28336;DHT22;15592;53.656;7.276;2023-07-13T00:22:17;16.30;99.90
28336;DHT22;15592;53.656;7.276;2023-07-13T00:24:44;16.30;99.90
28336;DHT22;15592;53.656;7.276;2023-07-13T00:27:10;16.30;99.90
28336;DHT22;15592;53.656;7.276;2023-07-13T00:29:36;16.30;99.90
28336;DHT22;15592;53.656;7.276;2023-07-13T00:32:06;16.20;99.90
28336;DHT22;15592;53.656;7.276;2023-07-13T00:34:32;16.20;99.90
28336;DHT22;15592;53.656;7.276;2023-07-13T00:36:58;16.20;99.90
28336;DHT22;15592;53.656;7.276;2023-07-13T00:39:24;16.20;99.90
28336;DHT22;15592;53.656;7.276;2023-07-13T00:41:50;16.20;99.90
28336;DHT22;15592;53.656;7.276;2023-07-13T00:44:18;16.20;99.90
28336;DHT22;15592;53.656;7.276;2023-07-13T00:46:44;16.20;99.90
28336;DHT22;15592;53.656;7.276;2023-07-13T00:49:14;16.20;99.90
28336;DHT22;15592;53.656;7.276;2023-07-13T00:51:47;16.20;99.90
28336;DHT22;15592;53.656;7.276;2023-07-13T00:54:16;16.20;99.90
28336;DHT22;15592;53.656;7.276;2023-07-13T00:56:44;16.20;99.90
28336;DHT22;15592;53.656;7.276;2023-07-13T00:59:11;16.20;99.90
28336;DHT22;15592;53.656;7.276;2023-07-13T01:01:37;16.20;99.90
28336;DHT22;15592;53.656;7.276;2023-07-13T01:04:03;16.20;99.90
28336;DHT22;15592;53.656;7.276;2023-07-13T01:06:29;16.30;99.90
28336;DHT22;15592;53.656;7.276;2023-07-13T01:08:56;16.30;99.90
28336;DHT22;15592;53.656;7.276;2023-07-13T01:11:23;16.30;99.90
28336;DHT22;15592;53.656;7.276;2023-07-13T01:13:49;16.40;99.90
28336;DHT22;15592;53.656;7.276;2023-07-13T01:16:26;16.40;99.90
28336;DHT22;15592;53.656;7.276;2023-07-13T01:18:52;16.40;99.90
28336;DHT22;15592;53.656;7.276;2023-07-13T01:21:17;16.40;99.90
28336;DHT22;15592;53.656;7.276;2023-07-13T01:23:44;16.40;99.90
28336;DHT22;15592;53.656;7.276;2023-07-13T01:26:10;16.30;99.90
28336;DHT22;15592;53.656;7.276;2023-07-13T01:28:36;16.40;99.90
28336;DHT22;15592;53.656;7.276;2023-07-13T01:31:03;16.40;99.90
28336;DHT22;15592;53.656;7.276;2023-07-13T01:33:29;16.40;99.90
28336;DHT22;15592;53.656;7.276;2023-07-13T01:35:55;16.40;99.90
28336;DHT22;15592;53.656;7.276;2023-07-13T01:38:23;16.40;99.90
28336;DHT22;15592;53.656;7.276;2023-07-13T01:40:50;16.40;99.90
28336;DHT22;15592;53.656;7.276;2023-07-13T01:43:17;16.40;99.90
28336;DHT22;15592;53.656;7.276;2023-07-13T01:45:42;16.40;99.90
28336;DHT22;15592;53.656;7.276;2023-07-13T01:48:10;16.40;99.90
28336;DHT22;15592;53.656;7.276;2023-07-13T01:50:35;16.40;99.90
28336;DHT22;15592;53.656;7.276;2023-07-13T01:53:01;16.40;99.90
28336;DHT22;15592;53.656;7.276;2023-07-13T01:55:28;16.40;99.90
28336;DHT22;15592;53.656;7.276;2023-07-13T01:57:54;16.40;99.90
28336;DHT22;15592;53.656;7.276;2023-07-13T02:00:20;16.30;99.90
28336;DHT22;15592;53.656;7.276;2023-07-13T02:02:45;16.30;99.90
28336;DHT22;15592;53.656;7.276;2023-07-13T02:05:12;16.30;99.90
28336;DHT22;15592;53.656;7.276;2023-07-13T02:07:38;16.30;99.90
28336;DHT22;15592;53.656;7.276;2023-07-13T02:10:05;16.30;99.90
28336;DHT22;15592;53.656;7.276;2023-07-13T02:12:31;16.20;99.90
28336;DHT22;15592;53.656;7.276;2023-07-13T02:14:56;16.10;99.90
28336;DHT22;15592;53.656;7.276;2023-07-13T02:17:22;16.10;99.90
28336;DHT22;15592;53.656;7.276;2023-07-13T02:19:47;16.10;99.90
28336;DHT22;15592;53.656;7.276;2023-07-13T02:22:13;16.10;99.90
28336;DHT22;15592;53.656;7.276;2023-07-13T02:24:39;16.10;99.90
28336;DHT22;15592;53.656;7.276;2023-07-13T02:27:05;16.10;99.90
28336;DHT22;15592;53.656;7.276;2023-07-13T02:29:31;16.00;99.90
28336;DHT22;15592;53.656;7.276;2023-07-13T02:31:57;16.00;99.90
28336;DHT22;15592;53.656;7.276;2023-07-13T02:34:22;16.00;99.90
28336;DHT22;15592;53.656;7.276;2023-07-13T02:36:48;16.00;99.90
28336;DHT22;15592;53.656;7.276;2023-07-13T02:39:13;16.00;99.90
28336;DHT22;15592;53.656;7.276;2023-07-13T02:41:39;16.10;99.90
28336;DHT22;15592;53.656;7.276;2023-07-13T02:44:05;16.10;99.90
28336;DHT22;15592;53.656;7.276;2023-07-13T02:46:32;16.10;99.90
28336;DHT22;15592;53.656;7.276;2023-07-13T02:48:58;16.10;99.90
28336;DHT22;15592;53.656;7.276;2023-07-13T02:51:23;16.10;99.90
28336;DHT22;15592;53.656;7.276;2023-07-13T02:53:49;16.10;99.90
28336;DHT22;15592;53.656;7.276;2023-07-13T02:56:15;16.10;99.90
28336;DHT22;15592;53.656;7.276;2023-07-13T02:58:40;16.10;99.90
28336;DHT22;15592;53.656;7.276;2023-07-13T03:01:08;16.10;99.90
28336;DHT22;15592;53.656;7.276;2023-07-13T03:03:33;16.10;99.90
28336;DHT22;15592;53.656;7.276;2023-07-13T03:06:00;16.10;99.90
28336;DHT22;15592;53.656;7.276;2023-07-13T03:08:27;16.10;99.90
28336;DHT22;15592;53.656;7.276;2023-07-13T03:11:14;16.10;99.90
28336;DHT22;15592;53.656;7.276;2023-07-13T03:13:41;16.10;99.90
28336;DHT22;15592;53.656;7.276;2023-07-13T03:16:08;16.10;99.90
28336;DHT22;15592;53.656;7.276;2023-07-13T03:18:35;16.00;99.90
28336;DHT22;15592;53.656;7.276;2023-07-13T03:21:01;16.00;99.90
28336;DHT22;15592;53.656;7.276;2023-07-13T03:23:27;16.00;99.90
28336;DHT22;15592;53.656;7.276;2023-07-13T03:26:22;15.90;99.90
28336;DHT22;15592;53.656;7.276;2023-07-13T03:28:48;15.90;99.90
28336;DHT22;15592;53.656;7.276;2023-07-13T03:31:16;15.90;99.90
28336;DHT22;15592;53.656;7.276;2023-07-13T03:33:43;15.90;99.90
28336;DHT22;15592;53.656;7.276;2023-07-13T03:36:13;15.80;99.90
28336;DHT22;15592;53.656;7.276;2023-07-13T03:38:39;15.90;99.90
28336;DHT22;15592;53.656;7.276;2023-07-13T03:41:05;15.80;99.90
28336;DHT22;15592;53.656;7.276;2023-07-13T03:43:31;15.80;99.90
28336;DHT22;15592;53.656;7.276;2023-07-13T03:45:56;15.80;99.90
28336;DHT22;15592;53.656;7.276;2023-07-13T03:48:22;15.80;99.90
28336;DHT22;15592;53.656;7.276;2023-07-13T03:50:48;15.80;99.90
28336;DHT22;15592;53.656;7.276;2023-07-13T03:53:14;15.80;99.90
28336;DHT22;15592;53.656;7.276;2023-07-13T03:55:40;15.80;99.90
28336;DHT22;15592;53.656;7.276;2023-07-13T04:00:49;15.80;99.90
28336;DHT22;15592;53.656;7.276;2023-07-13T04:03:15;15.90;99.90
28336;DHT22;15592;53.656;7.276;2023-07-13T04:05:41;16.00;99.90
28336;DHT22;15592;53.656;7.276;2023-07-13T04:08:07;16.00;99.90
28336;DHT22;15592;53.656;7.276;2023-07-13T04:10:33;16.10;99.90
28336;DHT22;15592;53.656;7.276;2023-07-13T04:12:58;16.10;99.90
28336;DHT22;15592;53.656;7.276;2023-07-13T04:15:24;16.10;99.90
28336;DHT22;15592;53.656;7.276;2023-07-13T04:17:49;16.20;99.90
28336;DHT22;15592;53.656;7.276;2023-07-13T04:20:15;16.20;99.90
28336;DHT22;15592;53.656;7.276;2023-07-13T04:22:41;16.20;99.90
28336;DHT22;15592;53.656;7.276;2023-07-13T04:25:07;16.20;99.90
28336;DHT22;15592;53.656;7.276;2023-07-13T04:27:32;16.20;99.90
28336;DHT22;15592;53.656;7.276;2023-07-13T04:29:58;16.30;99.90
28336;DHT22;15592;53.656;7.276;2023-07-13T04:32:23;16.30;99.90
28336;DHT22;15592;53.656;7.276;2023-07-13T04:34:49;16.30;99.90
28336;DHT22;15592;53.656;7.276;2023-07-13T04:37:20;16.30;99.90
28336;DHT22;15592;53.656;7.276;2023-07-13T04:39:45;16.30;99.90
28336;DHT22;15592;53.656;7.276;2023-07-13T04:42:11;16.30;99.90
28336;DHT22;15592;53.656;7.276;2023-07-13T04:44:36;16.30;99.90
28336;DHT22;15592;53.656;7.276;2023-07-13T04:47:02;16.30;99.90
28336;DHT22;15592;53.656;7.276;2023-07-13T04:49:28;16.30;99.90
28336;DHT22;15592;53.656;7.276;2023-07-13T04:51:53;16.40;99.90
28336;DHT22;15592;53.656;7.276;2023-07-13T04:54:20;16.40;99.90
28336;DHT22;15592;53.656;7.276;2023-07-13T04:56:47;16.40;99.90
28336;DHT22;15592;53.656;7.276;2023-07-13T04:59:12;16.40;99.90
28336;DHT22;15592;53.656;7.276;2023-07-13T05:01:38;16.40;99.90
28336;DHT22;15592;53.656;7.276;2023-07-13T05:04:04;16.40;99.90
28336;DHT22;15592;53.656;7.276;2023-07-13T05:06:30;16.40;99.90
28336;DHT22;15592;53.656;7.276;2023-07-13T05:08:56;16.40;99.90
28336;DHT22;15592;53.656;7.276;2023-07-13T05:11:22;16.40;99.90
28336;DHT22;15592;53.656;7.276;2023-07-13T05:13:47;16.40;99.90
28336;DHT22;15592;53.656;7.276;2023-07-13T05:16:13;16.50;99.90
28336;DHT22;15592;53.656;7.276;2023-07-13T05:18:39;16.50;99.90
28336;DHT22;15592;53.656;7.276;2023-07-13T05:21:07;16.50;99.90
28336;DHT22;15592;53.656;7.276;2023-07-13T05:23:34;16.60;99.90
28336;DHT22;15592;53.656;7.276;2023-07-13T05:25:59;16.60;99.90
28336;DHT22;15592;53.656;7.276;2023-07-13T05:28:26;16.60;99.90
28336;DHT22;15592;53.656;7.276;2023-07-13T05:30:52;16.70;99.90
28336;DHT22;15592;53.656;7.276;2023-07-13T05:33:19;16.70;99.90
28336;DHT22;15592;53.656;7.276;2023-07-13T05:35:45;16.80;99.90
28336;DHT22;15592;53.656;7.276;2023-07-13T05:38:11;16.80;99.90
28336;DHT22;15592;53.656;7.276;2023-07-13T05:40:37;16.80;99.90
28336;DHT22;15592;53.656;7.276;2023-07-13T05:43:03;16.80;99.90
28336;DHT22;15592;53.656;7.276;2023-07-13T05:45:28;16.90;99.90
28336;DHT22;15592;53.656;7.276;2023-07-13T05:47:54;17.00;99.90
28336;DHT22;15592;53.656;7.276;2023-07-13T05:50:20;17.00;99.90
28336;DHT22;15592;53.656;7.276;2023-07-13T05:52:46;17.10;99.90
28336;DHT22;15592;53.656;7.276;2023-07-13T05:55:12;17.20;99.90
28336;DHT22;15592;53.656;7.276;2023-07-13T05:57:38;17.20;99.90
28336;DHT22;15592;53.656;7.276;2023-07-13T06:00:04;17.30;99.90
28336;DHT22;15592;53.656;7.276;2023-07-13T06:02:30;17.30;99.90
28336;DHT22;15592;53.656;7.276;2023-07-13T06:04:55;17.30;99.90
28336;DHT22;15592;53.656;7.276;2023-07-13T06:07:21;17.30;99.90
28336;DHT22;15592;53.656;7.276;2023-07-13T06:09:47;17.30;99.90
28336;DHT22;15592;53.656;7.276;2023-07-13T06:12:12;17.30;99.90
28336;DHT22;15592;53.656;7.276;2023-07-13T06:14:38;17.30;99.90
28336;DHT22;15592;53.656;7.276;2023-07-13T06:17:03;17.30;99.90
28336;DHT22;15592;53.656;7.276;2023-07-13T06:19:29;17.30;99.90
28336;DHT22;15592;53.656;7.276;2023-07-13T06:21:55;17.30;99.90
28336;DHT22;15592;53.656;7.276;2023-07-13T06:24:22;17.40;99.90
28336;DHT22;15592;53.656;7.276;2023-07-13T06:26:47;17.40;99.90
28336;DHT22;15592;53.656;7.276;2023-07-13T06:29:13;17.40;99.90
28336;DHT22;15592;53.656;7.276;2023-07-13T06:31:38;17.50;99.90
28336;DHT22;15592;53.656;7.276;2023-07-13T06:34:04;17.60;99.90
28336;DHT22;15592;53.656;7.276;2023-07-13T06:36:29;17.70;99.90
28336;DHT22;15592;53.656;7.276;2023-07-13T06:38:55;17.80;99.90
28336;DHT22;15592;53.656;7.276;2023-07-13T06:41:21;17.80;99.90
28336;DHT22;15592;53.656;7.276;2023-07-13T06:43:47;17.80;99.90
28336;DHT22;15592;53.656;7.276;2023-07-13T06:46:13;17.80;99.90
28336;DHT22;15592;53.656;7.276;2023-07-13T06:48:39;17.80;99.90
28336;DHT22;15592;53.656;7.276;2023-07-13T06:51:04;17.80;99.90
28336;DHT22;15592;53.656;7.276;2023-07-13T06:53:30;17.80;99.90
28336;DHT22;15592;53.656;7.276;2023-07-13T06:55:56;17.90;99.90
28336;DHT22;15592;53.656;7.276;2023-07-13T06:58:22;18.00;99.90
28336;DHT22;15592;53.656;7.276;2023-07-13T07:00:51;18.10;99.90
28336;DHT22;15592;53.656;7.276;2023-07-13T07:03:17;18.20;99.90
28336;DHT22;15592;53.656;7.276;2023-07-13T07:05:42;18.20;99.90
28336;DHT22;15592;53.656;7.276;2023-07-13T07:08:08;18.20;99.90
28336;DHT22;15592;53.656;7.276;2023-07-13T07:10:35;18.20;99.90
28336;DHT22;15592;53.656;7.276;2023-07-13T07:13:01;18.20;99.90
28336;DHT22;15592;53.656;7.276;2023-07-13T07:15:27;18.20;99.90
28336;DHT22;15592;53.656;7.276;2023-07-13T07:17:53;18.20;99.90
28336;DHT22;15592;53.656;7.276;2023-07-13T07:20:19;18.10;99.90
28336;DHT22;15592;53.656;7.276;2023-07-13T07:22:46;18.10;99.90
28336;DHT22;15592;53.656;7.276;2023-07-13T07:25:12;18.10;99.90
28336;DHT22;15592;53.656;7.276;2023-07-13T07:27:37;18.00;99.90
28336;DHT22;15592;53.656;7.276;2023-07-13T07:30:03;18.00;99.90
28336;DHT22;15592;53.656;7.276;2023-07-13T07:32:30;18.00;99.90
28336;DHT22;15592;53.656;7.276;2023-07-13T07:34:57;17.90;99.90
28336;DHT22;15592;53.656;7.276;2023-07-13T07:37:23;17.90;99.90
28336;DHT22;15592;53.656;7.276;2023-07-13T07:39:48;18.00;99.90
28336;DHT22;15592;53.656;7.276;2023-07-13T07:42:14;18.00;99.90
28336;DHT22;15592;53.656;7.276;2023-07-13T07:44:40;18.20;99.90
28336;DHT22;15592;53.656;7.276;2023-07-13T07:47:07;18.30;99.90
28336;DHT22;15592;53.656;7.276;2023-07-13T07:49:32;18.50;99.90
28336;DHT22;15592;53.656;7.276;2023-07-13T07:51:58;18.60;99.90
28336;DHT22;15592;53.656;7.276;2023-07-13T07:54:24;18.70;99.90
28336;DHT22;15592;53.656;7.276;2023-07-13T07:56:49;18.80;99.90
28336;DHT22;15592;53.656;7.276;2023-07-13T07:59:15;18.90;99.90
28336;DHT22;15592;53.656;7.276;2023-07-13T08:01:40;18.90;99.90
28336;DHT22;15592;53.656;7.276;2023-07-13T08:04:06;19.00;99.90
28336;DHT22;15592;53.656;7.276;2023-07-13T08:06:32;19.00;99.90
28336;DHT22;15592;53.656;7.276;2023-07-13T08:08:59;19.10;99.90
28336;DHT22;15592;53.656;7.276;2023-07-13T08:11:25;19.20;99.90
28336;DHT22;15592;53.656;7.276;2023-07-13T08:13:51;19.30;99.90
28336;DHT22;15592;53.656;7.276;2023-07-13T08:16:16;19.30;99.90
28336;DHT22;15592;53.656;7.276;2023-07-13T08:18:42;19.20;99.90
28336;DHT22;15592;53.656;7.276;2023-07-13T08:21:08;19.10;99.90
28336;DHT22;15592;53.656;7.276;2023-07-13T08:23:35;19.00;99.90
28336;DHT22;15592;53.656;7.276;2023-07-13T08:26:01;18.90;99.90
28336;DHT22;15592;53.656;7.276;2023-07-13T08:28:27;18.90;99.90
28336;DHT22;15592;53.656;7.276;2023-07-13T08:30:53;18.80;99.90
28336;DHT22;15592;53.656;7.276;2023-07-13T08:33:21;18.70;99.90
28336;DHT22;15592;53.656;7.276;2023-07-13T08:35:48;18.70;99.90
28336;DHT22;15592;53.656;7.276;2023-07-13T08:38:15;18.70;99.90
28336;DHT22;15592;53.656;7.276;2023-07-13T08:40:41;18.90;99.90
28336;DHT22;15592;53.656;7.276;2023-07-13T08:43:13;19.10;99.90
28336;DHT22;15592;53.656;7.276;2023-07-13T08:45:51;19.30;99.90
28336;DHT22;15592;53.656;7.276;2023-07-13T08:48:27;19.50;99.90
28336;DHT22;15592;53.656;7.276;2023-07-13T08:53:45;19.60;99.90
28336;DHT22;15592;53.656;7.276;2023-07-13T08:56:17;19.60;99.90
28336;DHT22;15592;53.656;7.276;2023-07-13T08:58:44;19.60;99.90
28336;DHT22;15592;53.656;7.276;2023-07-13T09:04:14;19.60;99.90
28336;DHT22;15592;53.656;7.276;2023-07-13T09:07:05;19.70;99.90
28336;DHT22;15592;53.656;7.276;2023-07-13T09:14:51;20.30;99.90
28336;DHT22;15592;53.656;7.276;2023-07-13T09:17:48;20.20;99.90
28336;DHT22;15592;53.656;7.276;2023-07-13T09:20:22;20.10;99.90
28336;DHT22;15592;53.656;7.276;2023-07-13T09:22:49;20.00;99.90
28336;DHT22;15592;53.656;7.276;2023-07-13T09:25:30;19.90;99.90
28336;DHT22;15592;53.656;7.276;2023-07-13T09:28:02;20.00;99.90
28336;DHT22;15592;53.656;7.276;2023-07-13T09:30:49;20.30;99.90
28336;DHT22;15592;53.656;7.276;2023-07-13T09:33:17;20.40;99.90
28336;DHT22;15592;53.656;7.276;2023-07-13T09:35:42;20.50;99.90
28336;DHT22;15592;53.656;7.276;2023-07-13T09:38:13;20.50;99.90
28336;DHT22;15592;53.656;7.276;2023-07-13T09:43:31;20.50;99.90
28336;DHT22;15592;53.656;7.276;2023-07-13T09:45:56;20.40;99.90
28336;DHT22;15592;53.656;7.276;2023-07-13T09:48:22;20.50;99.90
28336;DHT22;15592;53.656;7.276;2023-07-13T09:50:54;20.50;99.90
28336;DHT22;15592;53.656;7.276;2023-07-13T09:53:21;20.40;99.90
28336;DHT22;15592;53.656;7.276;2023-07-13T09:55:48;20.30;99.90
28336;DHT22;15592;53.656;7.276;2023-07-13T09:58:15;20.30;99.90
28336;DHT22;15592;53.656;7.276;2023-07-13T10:00:44;20.40;99.90
28336;DHT22;15592;53.656;7.276;2023-07-13T10:03:24;20.50;99.90
28336;DHT22;15592;53.656;7.276;2023-07-13T10:05:52;20.50;99.90
28336;DHT22;15592;53.656;7.276;2023-07-13T10:08:21;20.60;99.90
28336;DHT22;15592;53.656;7.276;2023-07-13T10:10:52;20.60;99.90
28336;DHT22;15592;53.656;7.276;2023-07-13T10:13:30;20.70;99.90
28336;DHT22;15592;53.656;7.276;2023-07-13T10:15:58;20.80;99.90
28336;DHT22;15592;53.656;7.276;2023-07-13T10:18:25;20.80;99.90
28336;DHT22;15592;53.656;7.276;2023-07-13T10:20:58;20.80;99.90
28336;DHT22;15592;53.656;7.276;2023-07-13T10:23:29;20.70;99.90
28336;DHT22;15592;53.656;7.276;2023-07-13T10:25:57;20.70;99.90
28336;DHT22;15592;53.656;7.276;2023-07-13T10:28:35;20.60;99.90
28336;DHT22;15592;53.656;7.276;2023-07-13T10:31:01;20.40;99.90
28336;DHT22;15592;53.656;7.276;2023-07-13T10:33:28;20.20;99.90
28336;DHT22;15592;53.656;7.276;2023-07-13T10:36:15;20.10;99.90
28336;DHT22;15592;53.656;7.276;2023-07-13T10:38:43;19.90;99.90
28336;DHT22;15592;53.656;7.276;2023-07-13T10:41:21;19.70;99.90
28336;DHT22;15592;53.656;7.276;2023-07-13T10:43:51;19.70;99.90
28336;DHT22;15592;53.656;7.276;2023-07-13T10:46:19;19.70;99.90
28336;DHT22;15592;53.656;7.276;2023-07-13T10:48:49;19.70;99.90
28336;DHT22;15592;53.656;7.276;2023-07-13T10:51:18;19.70;99.90
28336;DHT22;15592;53.656;7.276;2023-07-13T10:53:46;19.80;99.90
28336;DHT22;15592;53.656;7.276;2023-07-13T10:56:31;19.80;99.90
28336;DHT22;15592;53.656;7.276;2023-07-13T10:59:11;19.80;99.90
28336;DHT22;15592;53.656;7.276;2023-07-13T11:04:44;19.70;99.90
28336;DHT22;15592;53.656;7.276;2023-07-13T11:07:18;19.60;99.90
28336;DHT22;15592;53.656;7.276;2023-07-13T11:09:50;19.50;99.90
28336;DHT22;15592;53.656;7.276;2023-07-13T11:17:51;19.70;99.90
28336;DHT22;15592;53.656;7.276;2023-07-13T11:20:32;19.90;99.90
28336;DHT22;15592;53.656;7.276;2023-07-13T11:25:39;20.30;99.90
28336;DHT22;15592;53.656;7.276;2023-07-13T11:31:20;20.30;99.90
28336;DHT22;15592;53.656;7.276;2023-07-13T11:36:16;20.40;99.90
28336;DHT22;15592;53.656;7.276;2023-07-13T11:39:05;20.50;99.90
28336;DHT22;15592;53.656;7.276;2023-07-13T11:41:45;20.50;99.90
28336;DHT22;15592;53.656;7.276;2023-07-13T11:44:17;20.40;99.90
28336;DHT22;15592;53.656;7.276;2023-07-13T11:46:52;20.40;99.90
28336;DHT22;15592;53.656;7.276;2023-07-13T11:49:20;20.50;99.90
28336;DHT22;15592;53.656;7.276;2023-07-13T11:51:47;20.60;99.90
28336;DHT22;15592;53.656;7.276;2023-07-13T11:56:52;20.60;99.90
28336;DHT22;15592;53.656;7.276;2023-07-13T11:59:19;20.50;99.90
28336;DHT22;15592;53.656;7.276;2023-07-13T12:01:51;20.40;99.90
28336;DHT22;15592;53.656;7.276;2023-07-13T12:04:27;20.30;99.90
28336;DHT22;15592;53.656;7.276;2023-07-13T12:07:11;20.20;99.90
28336;DHT22;15592;53.656;7.276;2023-07-13T12:09:39;20.10;99.90
28336;DHT22;15592;53.656;7.276;2023-07-13T12:12:28;20.20;99.90
28336;DHT22;15592;53.656;7.276;2023-07-13T12:14:54;20.30;99.90
28336;DHT22;15592;53.656;7.276;2023-07-13T12:17:23;20.40;99.90
28336;DHT22;15592;53.656;7.276;2023-07-13T12:19:51;20.60;99.90
28336;DHT22;15592;53.656;7.276;2023-07-13T12:22:18;20.50;99.90
28336;DHT22;15592;53.656;7.276;2023-07-13T12:24:46;20.30;99.90
28336;DHT22;15592;53.656;7.276;2023-07-13T12:27:26;20.20;99.90
28336;DHT22;15592;53.656;7.276;2023-07-13T12:30:03;20.20;99.90
28336;DHT22;15592;53.656;7.276;2023-07-13T12:32:31;20.20;99.90
28336;DHT22;15592;53.656;7.276;2023-07-13T12:35:13;20.20;99.90
28336;DHT22;15592;53.656;7.276;2023-07-13T12:37:42;20.20;99.90
28336;DHT22;15592;53.656;7.276;2023-07-13T12:40:18;20.30;99.90
28336;DHT22;15592;53.656;7.276;2023-07-13T12:42:46;20.40;99.90
28336;DHT22;15592;53.656;7.276;2023-07-13T12:45:21;20.40;99.90
28336;DHT22;15592;53.656;7.276;2023-07-13T12:47:54;20.50;99.90
28336;DHT22;15592;53.656;7.276;2023-07-13T12:50:27;20.60;99.90
28336;DHT22;15592;53.656;7.276;2023-07-13T12:53:01;20.60;99.90
28336;DHT22;15592;53.656;7.276;2023-07-13T12:55:29;20.60;99.90
28336;DHT22;15592;53.656;7.276;2023-07-13T12:57:58;20.70;99.90
28336;DHT22;15592;53.656;7.276;2023-07-13T13:02:57;20.60;99.90
28336;DHT22;15592;53.656;7.276;2023-07-13T13:05:26;20.50;99.90
28336;DHT22;15592;53.656;7.276;2023-07-13T13:07:52;20.50;99.90
28336;DHT22;15592;53.656;7.276;2023-07-13T13:10:17;20.60;99.90
28336;DHT22;15592;53.656;7.276;2023-07-13T13:12:43;20.70;99.90
28336;DHT22;15592;53.656;7.276;2023-07-13T13:15:10;20.70;99.90
28336;DHT22;15592;53.656;7.276;2023-07-13T13:17:37;20.80;99.90
28336;DHT22;15592;53.656;7.276;2023-07-13T13:20:20;20.70;99.90
28336;DHT22;15592;53.656;7.276;2023-07-13T13:22:46;20.50;99.90
28336;DHT22;15592;53.656;7.276;2023-07-13T13:25:13;20.30;99.90
28336;DHT22;15592;53.656;7.276;2023-07-13T13:27:41;20.30;99.90
28336;DHT22;15592;53.656;7.276;2023-07-13T13:30:11;20.30;99.90
28336;DHT22;15592;53.656;7.276;2023-07-13T13:32:39;20.30;99.90
28336;DHT22;15592;53.656;7.276;2023-07-13T13:35:05;20.30;99.90
28336;DHT22;15592;53.656;7.276;2023-07-13T13:37:32;20.50;99.90
28336;DHT22;15592;53.656;7.276;2023-07-13T13:39:57;20.50;99.90
28336;DHT22;15592;53.656;7.276;2023-07-13T13:42:23;20.60;99.90
28336;DHT22;15592;53.656;7.276;2023-07-13T13:44:50;20.60;99.90
28336;DHT22;15592;53.656;7.276;2023-07-13T13:47:31;20.60;99.90
28336;DHT22;15592;53.656;7.276;2023-07-13T13:49:58;20.50;99.90
28336;DHT22;15592;53.656;7.276;2023-07-13T13:52:24;20.30;99.90
28336;DHT22;15592;53.656;7.276;2023-07-13T13:54:51;20.40;99.90
28336;DHT22;15592;53.656;7.276;2023-07-13T13:57:24;20.50;99.90
28336;DHT22;15592;53.656;7.276;2023-07-13T13:59:53;20.50;99.90
28336;DHT22;15592;53.656;7.276;2023-07-13T14:02:23;20.60;99.90
28336;DHT22;15592;53.656;7.276;2023-07-13T14:04:57;20.60;99.90
28336;DHT22;15592;53.656;7.276;2023-07-13T14:07:25;20.70;99.90
28336;DHT22;15592;53.656;7.276;2023-07-13T14:09:52;20.70;99.90
28336;DHT22;15592;53.656;7.276;2023-07-13T14:12:18;20.70;99.90
28336;DHT22;15592;53.656;7.276;2023-07-13T14:14:44;20.70;99.90
28336;DHT22;15592;53.656;7.276;2023-07-13T14:17:21;20.70;99.90
28336;DHT22;15592;53.656;7.276;2023-07-13T14:19:48;20.60;99.90
28336;DHT22;15592;53.656;7.276;2023-07-13T14:22:17;20.70;99.90
28336;DHT22;15592;53.656;7.276;2023-07-13T14:24:43;20.70;99.90
28336;DHT22;15592;53.656;7.276;2023-07-13T14:27:10;20.60;99.90
28336;DHT22;15592;53.656;7.276;2023-07-13T14:29:36;20.70;99.90
28336;DHT22;15592;53.656;7.276;2023-07-13T14:32:02;20.70;99.90
28336;DHT22;15592;53.656;7.276;2023-07-13T14:34:30;20.70;99.90
28336;DHT22;15592;53.656;7.276;2023-07-13T14:36:55;20.70;99.90
28336;DHT22;15592;53.656;7.276;2023-07-13T14:39:24;20.60;99.90
28336;DHT22;15592;53.656;7.276;2023-07-13T14:41:52;20.60;99.90
28336;DHT22;15592;53.656;7.276;2023-07-13T14:44:22;20.60;99.90
28336;DHT22;15592;53.656;7.276;2023-07-13T14:46:49;20.70;99.90
28336;DHT22;15592;53.656;7.276;2023-07-13T14:51:51;20.70;99.90
28336;DHT22;15592;53.656;7.276;2023-07-13T14:54:16;20.70;99.90
28336;DHT22;15592;53.656;7.276;2023-07-13T14:56:42;20.70;99.90
28336;DHT22;15592;53.656;7.276;2023-07-13T14:59:08;20.60;99.90
28336;DHT22;15592;53.656;7.276;2023-07-13T15:01:36;20.50;99.90
28336;DHT22;15592;53.656;7.276;2023-07-13T15:04:02;20.60;99.90
28336;DHT22;15592;53.656;7.276;2023-07-13T15:06:29;20.60;99.90
28336;DHT22;15592;53.656;7.276;2023-07-13T15:08:57;20.50;99.90
28336;DHT22;15592;53.656;7.276;2023-07-13T15:11:22;20.40;99.90
28336;DHT22;15592;53.656;7.276;2023-07-13T15:13:48;20.40;99.90
28336;DHT22;15592;53.656;7.276;2023-07-13T15:16:18;20.30;99.90
28336;DHT22;15592;53.656;7.276;2023-07-13T15:18:46;20.20;99.90
28336;DHT22;15592;53.656;7.276;2023-07-13T15:21:19;20.10;99.90
28336;DHT22;15592;53.656;7.276;2023-07-13T15:23:45;20.00;99.90
28336;DHT22;15592;53.656;7.276;2023-07-13T15:26:13;20.10;99.90
28336;DHT22;15592;53.656;7.276;2023-07-13T15:28:40;20.10;99.90
28336;DHT22;15592;53.656;7.276;2023-07-13T15:31:21;20.30;99.90
28336;DHT22;15592;53.656;7.276;2023-07-13T15:33:48;20.40;99.90
28336;DHT22;15592;53.656;7.276;2023-07-13T15:36:19;20.40;99.90
28336;DHT22;15592;53.656;7.276;2023-07-13T15:38:46;20.30;99.90
28336;DHT22;15592;53.656;7.276;2023-07-13T15:41:38;20.30;99.90
28336;DHT22;15592;53.656;7.276;2023-07-13T15:44:25;20.30;99.90
28336;DHT22;15592;53.656;7.276;2023-07-13T15:46:51;20.30;99.90
28336;DHT22;15592;53.656;7.276;2023-07-13T15:49:17;20.30;99.90
28336;DHT22;15592;53.656;7.276;2023-07-13T15:51:43;20.30;99.90
28336;DHT22;15592;53.656;7.276;2023-07-13T15:54:13;20.40;99.90
28336;DHT22;15592;53.656;7.276;2023-07-13T15:56:40;20.40;99.90
28336;DHT22;15592;53.656;7.276;2023-07-13T15:59:10;20.40;99.90
28336;DHT22;15592;53.656;7.276;2023-07-13T16:01:38;20.30;99.90
28336;DHT22;15592;53.656;7.276;2023-07-13T16:04:04;20.20;99.90
28336;DHT22;15592;53.656;7.276;2023-07-13T16:06:35;20.30;99.90
28336;DHT22;15592;53.656;7.276;2023-07-13T16:09:02;20.30;99.90
28336;DHT22;15592;53.656;7.276;2023-07-13T16:11:34;20.30;99.90
28336;DHT22;15592;53.656;7.276;2023-07-13T16:14:00;20.20;99.90
28336;DHT22;15592;53.656;7.276;2023-07-13T16:16:29;20.20;99.90
28336;DHT22;15592;53.656;7.276;2023-07-13T16:18:57;20.20;99.90